Weather reports worldwide

Advertisment
Canizares, Spain (8230): temperature & dewpoint: 14.10.2019 22:00:00 - 20.10.2019 22:00:00 (CEST)Canizares, Spain (8230): precipitation: 14.10.2019 22:00:00 - 20.10.2019 22:00:00 (CEST)
Date & Time tt [°C] td [°C] rr [mm]
20.10.2019 22:00:00 - - -
20.10.2019 21:00:00 - - -
20.10.2019 20:00:00 - - -
20.10.2019 19:00:00 - - -
20.10.2019 18:00:00 9,4 9,3 0,2
20.10.2019 17:00:00 10,5 10,3 0,0
20.10.2019 16:00:00 11,0 10,9 0,3
20.10.2019 15:00:00 10,6 10,4 0,2
20.10.2019 14:00:00 12,2 11,6 -
20.10.2019 13:00:00 11,7 11,6 0,0
20.10.2019 12:00:00 11,1 11,0 0,0
20.10.2019 11:00:00 10,7 10,5 0,0
20.10.2019 10:00:00 10,0 9,8 0,1
20.10.2019 09:00:00 10,0 9,8 0,0
20.10.2019 08:00:00 10,4 10,3 -
20.10.2019 07:00:00 10,7 10,5 0,0
20.10.2019 06:00:00 11,4 11,2 0,0
20.10.2019 05:00:00 11,8 11,7 0,0
20.10.2019 04:00:00 11,8 11,7 0,1
20.10.2019 03:00:00 11,9 11,8 1,9
20.10.2019 02:00:00 12,2 12,0 -
20.10.2019 01:00:00 11,8 11,7 4,4
20.10.2019 00:00:00 11,8 11,7 11,5
19.10.2019 23:00:00 12,3 12,1 0,6
19.10.2019 22:00:00 12,5 12,3 0,0
19.10.2019 21:00:00 13,2 13,1 0,0
19.10.2019 20:00:00 13,3 13,2 -
19.10.2019 19:00:00 13,5 13,4 0,8
19.10.2019 18:00:00 13,4 13,3 0,2
19.10.2019 17:00:00 15,4 14,2 0,0
19.10.2019 16:00:00 17,1 14,7 0,0
19.10.2019 15:00:00 17,4 14,7 0,0
19.10.2019 14:00:00 16,4 15,3 -
19.10.2019 13:00:00 16,4 15,4 0,0
19.10.2019 12:00:00 16,4 15,4 0,0
19.10.2019 11:00:00 13,6 13,5 0,0
19.10.2019 10:00:00 13,2 13,1 0,0
19.10.2019 09:00:00 12,5 12,3 0,0
19.10.2019 08:00:00 13,1 13,0 -
19.10.2019 07:00:00 13,2 13,1 0,0
19.10.2019 06:00:00 12,3 12,1 0,1
19.10.2019 05:00:00 13,1 13,0 0,0
19.10.2019 04:00:00 13,8 13,7 0,0
19.10.2019 03:00:00 11,3 11,1 0,0
19.10.2019 02:00:00 10,5 10,3 -
19.10.2019 01:00:00 9,7 9,6 0,0
19.10.2019 00:00:00 10,3 10,2 0,0
18.10.2019 23:00:00 11,1 11,0 0,0
18.10.2019 22:00:00 11,7 11,6 0,0
18.10.2019 21:00:00 12,1 12,0 0,0
18.10.2019 20:00:00 13,7 13,6 -
18.10.2019 19:00:00 16,3 16,1 0,0
18.10.2019 18:00:00 18,6 18,5 0,0
18.10.2019 17:00:00 18,7 18,4 0,0
18.10.2019 16:00:00 18,8 18,6 0,1
18.10.2019 15:00:00 16,3 16,1 0,2
18.10.2019 14:00:00 17,5 17,4 -
18.10.2019 13:00:00 16,6 16,5 0,0
18.10.2019 12:00:00 15,4 15,3 0,0
18.10.2019 11:00:00 14,4 14,2 0,6
18.10.2019 10:00:00 14,0 13,9 0,2
18.10.2019 09:00:00 13,8 13,7 0,0
18.10.2019 08:00:00 13,6 13,5 -
18.10.2019 07:00:00 13,4 13,3 0,0
18.10.2019 06:00:00 13,0 12,8 0,0
18.10.2019 05:00:00 12,9 12,7 0,7
18.10.2019 04:00:00 12,6 12,4 0,1
18.10.2019 03:00:00 12,3 12,1 0,0
18.10.2019 02:00:00 12,3 12,1 -
18.10.2019 01:00:00 12,8 12,6 0,0
18.10.2019 00:00:00 12,9 12,7 0,0
17.10.2019 23:00:00 12,9 12,7 0,0
17.10.2019 22:00:00 13,2 13,1 0,0
17.10.2019 21:00:00 13,4 13,3 0,0
17.10.2019 20:00:00 13,4 13,3 -
17.10.2019 19:00:00 14,3 14,1 0,0
17.10.2019 18:00:00 15,1 15,0 0,0
17.10.2019 17:00:00 15,6 15,4 0,0
17.10.2019 16:00:00 14,7 14,5 0,0
17.10.2019 15:00:00 14,3 14,1 0,0
17.10.2019 14:00:00 12,6 12,4 -
17.10.2019 13:00:00 10,6 10,4 0,0
17.10.2019 12:00:00 10,2 10,0 0,0
17.10.2019 11:00:00 8,7 8,5 0,0
17.10.2019 10:00:00 5,5 5,3 0,0
17.10.2019 09:00:00 2,5 2,3 0,0
17.10.2019 08:00:00 2,3 2,1 -
17.10.2019 07:00:00 2,3 2,1 0,0
17.10.2019 06:00:00 2,7 2,5 0,0
17.10.2019 05:00:00 3,1 3,0 0,0
17.10.2019 04:00:00 3,2 3,0 0,0
17.10.2019 03:00:00 3,9 3,8 0,0
17.10.2019 02:00:00 4,1 3,9 -
17.10.2019 01:00:00 4,5 4,3 0,0
17.10.2019 00:00:00 5,2 5,1 0,0
16.10.2019 23:00:00 5,9 5,8 0,0
16.10.2019 22:00:00 6,8 6,7 0,0
16.10.2019 21:00:00 7,9 7,7 0,0
16.10.2019 20:00:00 9,6 9,4 -
16.10.2019 19:00:00 12,8 10,9 0,0
16.10.2019 18:00:00 16,3 9,9 0,0
16.10.2019 17:00:00 17,7 10,3 0,1
16.10.2019 16:00:00 19,0 11,8 0,0
16.10.2019 15:00:00 17,1 11,3 0,0
16.10.2019 14:00:00 16,1 11,7 -
16.10.2019 13:00:00 15,8 11,8 0,0
16.10.2019 12:00:00 14,7 11,9 0,0
16.10.2019 11:00:00 10,0 9,8 0,0
16.10.2019 10:00:00 4,1 3,9 0,0
16.10.2019 09:00:00 2,5 2,3 0,0
16.10.2019 08:00:00 2,7 2,5 -
16.10.2019 07:00:00 2,7 2,5 0,0
16.10.2019 06:00:00 3,4 3,2 0,0
16.10.2019 05:00:00 3,8 3,6 0,0
16.10.2019 04:00:00 4,7 4,6 0,0
16.10.2019 03:00:00 5,2 5,1 0,0
16.10.2019 02:00:00 4,5 4,3 -
16.10.2019 01:00:00 4,9 4,8 0,0
16.10.2019 00:00:00 5,0 4,8 0,0
15.10.2019 23:00:00 5,6 5,5 0,0
15.10.2019 22:00:00 6,4 6,2 0,0
15.10.2019 21:00:00 7,4 7,3 0,0
15.10.2019 20:00:00 8,8 8,7 -
15.10.2019 19:00:00 11,8 10,4 0,0
15.10.2019 18:00:00 14,6 9,6 0,0
15.10.2019 17:00:00 15,3 9,4 0,0
15.10.2019 16:00:00 16,6 10,2 0,0
15.10.2019 15:00:00 14,9 9,7 0,0
15.10.2019 14:00:00 13,8 9,3 -
15.10.2019 13:00:00 14,0 10,0 0,0
15.10.2019 12:00:00 12,4 10,2 0,0
15.10.2019 11:00:00 9,4 9,3 0,0
15.10.2019 10:00:00 4,1 3,9 0,0
15.10.2019 09:00:00 2,8 2,7 0,0
15.10.2019 08:00:00 3,3 3,2 -
15.10.2019 07:00:00 4,5 4,3 0,0
15.10.2019 06:00:00 5,4 5,3 0,0
15.10.2019 05:00:00 5,5 5,3 0,0
15.10.2019 04:00:00 6,6 6,4 0,0
15.10.2019 03:00:00 8,2 8,1 0,1
15.10.2019 02:00:00 9,5 9,3 -
15.10.2019 01:00:00 10,0 9,8 0,0
15.10.2019 00:00:00 9,9 9,8 0,0
14.10.2019 23:00:00 9,8 9,7 0,1
14.10.2019 22:00:00 9,8 9,7 0,6

tt = temperature
td = dewpoint
rr = precipitation

Next stations